Terminal Aerodrome Forecast
Issued by NWS Wichita, KS

Home | Current Version | Previous Version | Graphics & Text | Print | Product List | Glossary On
Versions: 1 2 3 4 5 6 7 8 9 10 11 12 13 14 15 16
000
FTUS43 KICT 201128
TAFICT
TAF
KICT 201128Z 2012/2112 17013KT P6SM BKN300 WS020/20045KT
     FM201500 24007KT P6SM SCT250
     FM202000 20006KT P6SM SCT200
     FM210200 12006KT P6SM SCT150
     FM210900 17008KT P6SM SCT200=

USA.gov is the U.S. government's official web portal to all federal, state and local government web resources and services.